createdAt,value
2018-05-02T00:01:59.124Z,5.53
2018-05-02T00:04:25.508Z,5.54
2018-05-02T00:06:51.411Z,5.45
2018-05-02T00:09:17.259Z,5.47
2018-05-02T00:11:43.116Z,5.50
2018-05-02T00:14:09.015Z,5.43
2018-05-02T00:16:34.895Z,5.39
2018-05-02T00:19:00.846Z,5.26
2018-05-02T00:21:26.751Z,5.22
2018-05-02T00:23:52.610Z,5.20
2018-05-02T00:26:18.458Z,5.12
2018-05-02T00:28:44.336Z,5.11
2018-05-02T00:31:10.175Z,5.09
2018-05-02T00:33:36.032Z,5.09
2018-05-02T00:36:01.932Z,5.07
2018-05-02T00:38:27.829Z,5.03
2018-05-02T00:40:53.683Z,4.99
2018-05-02T00:43:19.587Z,4.99
2018-05-02T00:45:45.502Z,4.98
2018-05-02T00:48:11.348Z,4.89
2018-05-02T00:50:37.244Z,4.92
2018-05-02T00:53:03.103Z,4.82
2018-05-02T00:55:28.968Z,4.83
2018-05-02T00:57:54.862Z,4.88
2018-05-02T01:00:20.737Z,4.89
2018-05-02T01:02:46.615Z,4.88
2018-05-02T01:05:12.517Z,4.80
2018-05-02T01:07:38.370Z,4.75
2018-05-02T01:10:04.244Z,4.72
2018-05-02T01:12:30.156Z,4.70
2018-05-02T01:14:56.002Z,4.75
2018-05-02T01:17:21.855Z,4.77
2018-05-02T01:19:47.754Z,4.66
2018-05-02T01:22:13.642Z,4.63
2018-05-02T01:24:39.494Z,4.57
2018-05-02T01:27:05.404Z,4.54
2018-05-02T01:29:31.277Z,4.50
2018-05-02T01:31:57.145Z,4.42
2018-05-02T01:34:23.047Z,4.45
2018-05-02T01:36:48.903Z,4.37
2018-05-02T01:39:14.767Z,4.40
2018-05-02T01:41:40.650Z,4.38
2018-05-02T01:44:06.531Z,4.35
2018-05-02T01:46:32.434Z,4.39
2018-05-02T01:49:10.733Z,4.40
2018-05-02T01:51:36.638Z,4.28
2018-05-02T01:54:02.502Z,4.23
2018-05-02T01:56:28.397Z,4.23
2018-05-02T01:58:54.234Z,4.25
2018-05-02T02:01:20.079Z,4.29
2018-05-02T02:03:46.004Z,4.23
2018-05-02T02:06:11.858Z,4.22
2018-05-02T02:08:37.716Z,4.14
2018-05-02T02:11:03.606Z,4.16
2018-05-02T02:13:29.464Z,4.24
2018-05-02T02:15:55.322Z,4.32
2018-05-02T02:18:21.223Z,4.25
2018-05-02T02:20:47.077Z,4.23
2018-05-02T02:23:12.938Z,4.38
2018-05-02T02:25:38.838Z,4.20
2018-05-02T02:28:04.720Z,4.17
2018-05-02T02:30:30.639Z,4.09
2018-05-02T02:32:56.573Z,4.04
2018-05-02T02:35:22.427Z,4.05
2018-05-02T02:37:48.274Z,4.01
2018-05-02T02:40:14.212Z,4.01
2018-05-02T02:42:40.059Z,3.94
2018-05-02T02:45:05.909Z,3.96
2018-05-02T02:47:31.867Z,4.06
2018-05-02T02:49:57.857Z,4.10
2018-05-02T02:52:23.703Z,4.05
2018-05-02T02:54:49.614Z,3.94
2018-05-02T02:57:15.463Z,4.09
2018-05-02T02:59:41.310Z,3.92
2018-05-02T03:02:07.225Z,3.82
2018-05-02T03:04:33.131Z,3.83
2018-05-02T03:06:58.983Z,3.78
2018-05-02T03:09:24.872Z,3.84
2018-05-02T03:11:50.739Z,3.75
2018-05-02T03:14:16.617Z,3.67
2018-05-02T03:16:42.523Z,3.73
2018-05-02T03:19:08.367Z,3.66
2018-05-02T03:21:34.244Z,3.81
2018-05-02T03:24:00.143Z,3.76
2018-05-02T03:26:25.987Z,3.75
2018-05-02T03:28:51.839Z,3.72
2018-05-02T03:31:17.743Z,3.83
2018-05-02T03:33:43.595Z,3.76
2018-05-02T03:36:09.440Z,3.67
2018-05-02T03:38:35.345Z,3.72
2018-05-02T03:41:01.200Z,3.73
2018-05-02T03:43:27.069Z,3.69
2018-05-02T03:45:52.972Z,3.69
2018-05-02T03:48:18.878Z,3.77
2018-05-02T03:50:44.844Z,3.89
2018-05-02T03:53:10.982Z,3.79
2018-05-02T03:55:36.842Z,3.84
2018-05-02T03:58:02.799Z,3.99
2018-05-02T04:03:50.896Z,4.13
2018-05-02T04:06:29.034Z,4.14
2018-05-02T04:08:54.902Z,4.00
2018-05-02T04:11:20.780Z,4.16
2018-05-02T04:13:46.683Z,4.26
2018-05-02T04:16:12.534Z,4.33
2018-05-02T04:18:38.394Z,4.38
2018-05-02T04:21:04.303Z,4.44
2018-05-02T04:23:30.145Z,4.57
2018-05-02T04:25:56.131Z,4.68
2018-05-02T04:28:22.007Z,4.84
2018-05-02T04:30:47.854Z,4.79
2018-05-02T04:33:13.694Z,4.86
2018-05-02T04:35:39.571Z,4.92
2018-05-02T04:38:05.434Z,4.92
2018-05-02T04:40:31.294Z,4.92
2018-05-02T04:42:57.219Z,4.99
2018-05-02T04:45:23.089Z,4.96
2018-05-02T04:47:48.943Z,4.97
2018-05-02T04:50:14.920Z,4.95
2018-05-02T04:52:40.801Z,5.01
2018-05-02T04:55:06.691Z,4.97
2018-05-02T04:57:32.591Z,5.06
2018-05-02T04:59:58.488Z,5.11
2018-05-02T05:02:24.371Z,5.23
2018-05-02T05:04:50.255Z,5.22
2018-05-02T05:07:16.116Z,5.34
2018-05-02T05:09:41.976Z,5.56
2018-05-02T05:12:07.921Z,5.66
2018-05-02T05:14:33.768Z,5.79
2018-05-02T05:16:59.806Z,6.03
2018-05-02T05:19:25.712Z,6.29
2018-05-02T05:21:51.567Z,6.50
2018-05-02T05:24:17.518Z,6.67
2018-05-02T05:26:43.436Z,6.91
2018-05-02T05:29:09.295Z,7.13
2018-05-02T05:31:35.152Z,7.34
2018-05-02T05:34:01.052Z,7.37
2018-05-02T05:36:26.907Z,7.51
2018-05-02T05:38:52.751Z,7.65
2018-05-02T05:41:18.655Z,7.71
2018-05-02T05:43:44.501Z,7.77
2018-05-02T05:46:10.347Z,7.98
2018-05-02T05:48:36.288Z,8.14
2018-05-02T05:51:02.196Z,8.23
2018-05-02T05:53:28.065Z,8.18
2018-05-02T05:55:53.975Z,8.21
2018-05-02T05:58:19.823Z,8.20
2018-05-02T06:00:45.701Z,8.22
2018-05-02T06:03:11.674Z,8.28
2018-05-02T06:05:37.511Z,8.24
2018-05-02T06:08:03.444Z,8.30
2018-05-02T06:10:29.407Z,8.38
2018-05-02T06:12:55.267Z,8.59
2018-05-02T06:15:21.114Z,8.72
2018-05-02T06:17:46.998Z,8.83
2018-05-02T06:20:13.363Z,8.86
2018-05-02T06:22:39.774Z,9.23
2018-05-02T06:25:06.241Z,9.55
2018-05-02T06:27:32.151Z,9.72
2018-05-02T06:29:58.122Z,10.13
2018-05-02T06:32:24.408Z,10.34
2018-05-02T06:34:50.298Z,10.50
2018-05-02T06:37:16.178Z,10.76
2018-05-02T06:39:42.139Z,10.79
2018-05-02T06:42:08.048Z,10.87
2018-05-02T06:44:33.897Z,10.99
2018-05-02T06:46:59.779Z,10.86
2018-05-02T06:49:25.664Z,10.85
2018-05-02T06:51:51.673Z,10.99
2018-05-02T06:54:17.572Z,11.34
2018-05-02T06:56:43.437Z,11.50
2018-05-02T06:59:09.326Z,11.72
2018-05-02T07:01:35.215Z,11.98
2018-05-02T07:04:01.127Z,12.21
2018-05-02T07:06:26.983Z,11.83
2018-05-02T07:08:52.871Z,11.78
2018-05-02T07:11:18.717Z,11.88
2018-05-02T07:13:44.560Z,12.03
2018-05-02T07:16:10.495Z,12.46
2018-05-02T07:18:36.348Z,12.58
2018-05-02T07:21:02.221Z,12.65
2018-05-02T07:23:28.190Z,12.95
2018-05-02T07:25:54.039Z,12.95
2018-05-02T07:28:19.897Z,12.96
2018-05-02T07:30:45.774Z,13.06
2018-05-02T07:33:11.653Z,13.04
2018-05-02T07:35:37.515Z,12.93
2018-05-02T07:38:03.423Z,13.06
2018-05-02T07:40:29.289Z,13.48
2018-05-02T07:42:55.143Z,13.80
2018-05-02T07:45:21.035Z,13.66
2018-05-02T07:47:46.892Z,13.64
2018-05-02T07:50:12.753Z,13.61
2018-05-02T07:52:38.662Z,14.01
2018-05-02T07:55:04.588Z,14.03
2018-05-02T07:57:30.545Z,14.11
2018-05-02T07:59:56.453Z,13.94
2018-05-02T08:02:22.307Z,13.79
2018-05-02T08:04:48.169Z,13.79
2018-05-02T08:07:14.171Z,14.22
2018-05-02T08:09:40.011Z,14.40
2018-05-02T08:12:05.880Z,13.92
2018-05-02T08:14:31.776Z,14.13
2018-05-02T08:16:57.620Z,14.18
2018-05-02T08:19:23.563Z,14.39
2018-05-02T08:21:49.471Z,14.57
2018-05-02T08:24:15.593Z,14.60
2018-05-02T08:26:41.487Z,14.90
2018-05-02T08:29:07.369Z,15.23
2018-05-02T08:31:33.286Z,15.54
2018-05-02T08:33:59.134Z,15.27
2018-05-02T08:36:25.057Z,15.66
2018-05-02T08:38:50.916Z,14.84
2018-05-02T08:41:16.770Z,14.96
2018-05-02T08:43:42.772Z,14.53
2018-05-02T08:46:08.647Z,14.19
2018-05-02T08:48:34.496Z,14.24
2018-05-02T08:51:00.395Z,14.35
2018-05-02T08:53:26.243Z,14.16
2018-05-02T08:55:52.179Z,14.08
2018-05-02T08:58:18.071Z,14.07
2018-05-02T09:00:43.915Z,13.98
2018-05-02T09:03:09.776Z,13.88
2018-05-02T09:05:35.795Z,13.87
2018-05-02T09:08:01.790Z,13.66
2018-05-02T09:10:27.647Z,13.72
2018-05-02T09:12:53.564Z,13.70
2018-05-02T09:15:19.411Z,13.61
2018-05-02T09:17:45.296Z,13.45
2018-05-02T09:20:11.308Z,13.39
2018-05-02T09:22:37.177Z,13.34
2018-05-02T09:25:03.054Z,13.29
2018-05-02T09:27:28.947Z,13.16
2018-05-02T09:29:54.786Z,13.16
2018-05-02T09:32:20.734Z,13.14
2018-05-02T09:34:46.638Z,13.21
2018-05-02T09:37:12.501Z,13.18
2018-05-02T09:39:38.353Z,13.28
2018-05-02T09:42:04.639Z,13.34
2018-05-02T09:44:30.564Z,13.61
2018-05-02T09:46:56.427Z,13.61
2018-05-02T09:49:22.318Z,13.67
2018-05-02T09:51:48.163Z,13.79
2018-05-02T09:54:14.027Z,13.84
2018-05-02T09:56:39.993Z,13.87
2018-05-02T09:59:05.869Z,13.94
2018-05-02T10:01:31.740Z,13.81
2018-05-02T10:03:57.676Z,13.88
2018-05-02T10:06:23.548Z,14.02
2018-05-02T10:08:49.487Z,14.16
2018-05-02T10:11:15.388Z,14.33
2018-05-02T10:13:41.254Z,14.09
2018-05-02T10:16:07.102Z,14.51
2018-05-02T10:18:33.160Z,14.87
2018-05-02T10:20:59.036Z,14.44
2018-05-02T10:23:24.947Z,14.26
2018-05-02T10:25:50.846Z,14.17
2018-05-02T10:28:16.698Z,14.21
2018-05-02T10:30:42.590Z,14.25
2018-05-02T10:33:08.575Z,14.33
2018-05-02T10:35:34.427Z,14.46
2018-05-02T10:38:00.388Z,14.48
2018-05-02T10:40:26.287Z,14.50
2018-05-02T10:42:52.135Z,14.34
2018-05-02T10:45:18.064Z,14.51
2018-05-02T10:47:43.986Z,14.35
2018-05-02T10:50:09.861Z,14.27
2018-05-02T10:52:35.715Z,14.31
2018-05-02T10:55:01.620Z,14.33
2018-05-02T10:57:27.563Z,14.41
2018-05-02T10:59:53.444Z,14.29
2018-05-02T11:02:19.339Z,14.38
2018-05-02T11:04:45.200Z,14.53
2018-05-02T11:07:11.066Z,14.44
2018-05-02T11:09:37.002Z,14.39
2018-05-02T11:12:02.871Z,14.53
2018-05-02T11:14:28.976Z,14.86
2018-05-02T11:16:55.148Z,14.55
2018-05-02T11:19:21.174Z,14.49
2018-05-02T11:21:47.038Z,14.41
2018-05-02T11:24:12.968Z,14.41
2018-05-02T11:26:38.823Z,14.19
2018-05-02T11:29:04.961Z,14.25
2018-05-02T11:31:30.917Z,14.10
2018-05-02T11:33:56.763Z,14.11
2018-05-02T11:36:22.632Z,14.13
2018-05-02T11:38:48.537Z,14.06
2018-05-02T11:41:14.459Z,13.96
2018-05-02T11:43:40.306Z,14.03
2018-05-02T11:46:06.220Z,13.81
2018-05-02T11:48:32.524Z,13.84
2018-05-02T11:50:58.402Z,13.81
2018-05-02T11:53:24.298Z,13.96
2018-05-02T11:55:50.163Z,13.95
2018-05-02T11:58:16.093Z,13.87
2018-05-02T12:00:42.011Z,13.89
2018-05-02T12:03:07.944Z,14.02
2018-05-02T12:05:33.935Z,13.90
2018-05-02T12:07:59.858Z,13.92
2018-05-02T12:10:25.935Z,13.81
2018-05-02T12:12:51.833Z,13.63
2018-05-02T12:15:17.749Z,13.71
2018-05-02T12:17:43.609Z,13.60
2018-05-02T12:20:09.552Z,13.61
2018-05-02T12:22:35.627Z,13.58
2018-05-02T12:25:01.536Z,13.54
2018-05-02T12:27:27.504Z,13.58
2018-05-02T12:29:53.412Z,13.73
2018-05-02T12:32:19.456Z,13.82
2018-05-02T12:34:45.396Z,13.73
2018-05-02T12:37:11.485Z,13.67
2018-05-02T12:39:37.358Z,13.71
2018-05-02T12:42:03.226Z,13.76
2018-05-02T12:44:29.158Z,13.79
2018-05-02T12:46:55.114Z,13.93
2018-05-02T12:49:20.963Z,14.04
2018-05-02T12:51:47.572Z,14.11
2018-05-02T12:54:13.431Z,14.33
2018-05-02T12:56:39.291Z,14.70
2018-05-02T12:59:05.247Z,15.18
2018-05-02T13:01:31.111Z,15.76
2018-05-02T13:03:56.980Z,16.37
2018-05-02T13:06:22.864Z,16.34
2018-05-02T13:08:48.743Z,16.02
2018-05-02T13:11:14.643Z,15.91
2018-05-02T13:13:40.556Z,15.74
2018-05-02T13:16:06.418Z,16.27
2018-05-02T13:18:32.297Z,15.79
2018-05-02T13:20:58.453Z,16.01
2018-05-02T13:23:24.424Z,15.60
2018-05-02T13:25:50.195Z,16.32
2018-05-02T13:28:16.100Z,17.00
2018-05-02T13:30:42.087Z,16.99
2018-05-02T13:33:08.086Z,16.67
2018-05-02T13:35:34.366Z,16.32
2018-05-02T13:38:00.246Z,16.18
2018-05-02T13:40:26.106Z,16.02
2018-05-02T13:42:52.078Z,16.41
2018-05-02T13:45:17.979Z,16.50
2018-05-02T13:47:43.849Z,16.54
2018-05-02T13:50:09.735Z,16.13
2018-05-02T13:52:35.592Z,15.83
2018-05-02T13:55:01.454Z,15.78
2018-05-02T13:57:27.704Z,16.08
2018-05-02T13:59:53.604Z,16.18
2018-05-02T14:02:19.464Z,16.41
2018-05-02T14:04:45.492Z,16.79
2018-05-02T14:07:11.493Z,17.11
2018-05-02T14:09:37.412Z,16.91
2018-05-02T14:12:03.350Z,16.37
2018-05-02T14:14:29.246Z,16.30
2018-05-02T14:16:55.103Z,16.65
2018-05-02T14:19:21.019Z,16.68
2018-05-02T14:21:46.866Z,16.80
2018-05-02T14:24:12.816Z,16.94
2018-05-02T14:26:38.666Z,16.31
2018-05-02T14:29:04.523Z,16.14
2018-05-02T14:31:30.370Z,16.34
2018-05-02T14:33:56.330Z,16.20
2018-05-02T14:36:22.194Z,16.05
2018-05-02T14:38:48.048Z,16.22
2018-05-02T14:41:13.978Z,16.74
2018-05-02T14:43:39.831Z,16.63
2018-05-02T14:46:05.686Z,16.66
2018-05-02T14:48:31.966Z,16.06
2018-05-02T14:50:57.906Z,16.45
2018-05-02T14:53:23.759Z,16.16
2018-05-02T14:55:49.655Z,16.01
2018-05-02T14:58:15.507Z,15.99
2018-05-02T15:00:41.431Z,15.91
2018-05-02T15:03:07.350Z,16.06
2018-05-02T15:05:33.222Z,15.99
2018-05-02T15:07:59.084Z,16.09
2018-05-02T15:10:25.062Z,16.18
2018-05-02T15:12:51.015Z,15.94
2018-05-02T15:15:16.863Z,15.81
2018-05-02T15:17:43.070Z,16.04
2018-05-02T15:20:08.957Z,16.08
2018-05-02T15:22:34.802Z,16.06
2018-05-02T15:25:00.794Z,16.01
2018-05-02T15:27:26.664Z,16.02
2018-05-02T15:29:52.527Z,16.27
2018-05-02T15:32:18.423Z,16.42
2018-05-02T15:34:44.287Z,16.44
2018-05-02T15:37:10.215Z,16.48
2018-05-02T15:39:36.102Z,16.39
2018-05-02T15:42:01.962Z,16.39
2018-05-02T15:44:27.811Z,16.53
2018-05-02T15:46:53.715Z,16.69
2018-05-02T15:49:19.702Z,17.02
2018-05-02T15:51:45.566Z,16.46
2018-05-02T15:54:11.463Z,16.18
2018-05-02T15:56:37.307Z,16.05
2018-05-02T15:59:03.176Z,16.03
2018-05-02T16:01:29.071Z,15.98
2018-05-02T16:03:54.935Z,15.89
2018-05-02T16:06:20.805Z,15.81
2018-05-02T16:08:46.697Z,15.66
2018-05-02T16:11:12.552Z,15.74
2018-05-02T16:13:38.423Z,15.74
2018-05-02T16:16:04.324Z,15.60
2018-05-02T16:18:30.235Z,15.53
2018-05-02T16:20:56.150Z,15.51
2018-05-02T16:23:22.055Z,15.51
2018-05-02T16:25:47.906Z,15.43
2018-05-02T16:28:13.780Z,15.50
2018-05-02T16:30:39.695Z,15.39
2018-05-02T16:33:05.559Z,15.45
2018-05-02T16:35:31.422Z,15.37
2018-05-02T16:37:57.328Z,15.22
2018-05-02T16:40:23.178Z,15.06
2018-05-02T16:42:49.057Z,15.17
2018-05-02T16:45:14.952Z,15.10
2018-05-02T16:47:40.797Z,15.12
2018-05-02T16:50:06.720Z,15.10
2018-05-02T16:52:32.735Z,15.00
2018-05-02T16:54:58.587Z,15.02
2018-05-02T16:57:24.454Z,15.04
2018-05-02T16:59:50.371Z,14.88
2018-05-02T17:02:16.228Z,14.78
2018-05-02T17:04:42.163Z,14.76
2018-05-02T17:07:08.082Z,14.70
2018-05-02T17:09:33.931Z,14.78
2018-05-02T17:11:59.882Z,14.79
2018-05-02T17:14:25.796Z,14.61
2018-05-02T17:16:51.690Z,14.52
2018-05-02T17:19:17.533Z,14.51
2018-05-02T17:21:43.439Z,14.61
2018-05-02T17:24:09.304Z,14.58
2018-05-02T17:26:35.202Z,14.55
2018-05-02T17:29:01.124Z,14.59
2018-05-02T17:31:27.005Z,14.46
2018-05-02T17:33:52.856Z,14.57
2018-05-02T17:36:18.751Z,14.46
2018-05-02T17:38:44.620Z,14.53
2018-05-02T17:41:10.480Z,14.51
2018-05-02T17:43:36.380Z,14.43
2018-05-02T17:46:02.240Z,14.41
2018-05-02T17:48:28.092Z,14.37
2018-05-02T17:50:54.043Z,14.31
2018-05-02T17:53:19.918Z,14.11
2018-05-02T17:55:45.924Z,14.20
2018-05-02T17:58:11.823Z,14.09
2018-05-02T18:00:37.691Z,14.12
2018-05-02T18:03:03.595Z,13.96
2018-05-02T18:05:29.772Z,14.00
2018-05-02T18:07:55.612Z,13.97
2018-05-02T18:10:21.561Z,13.96
2018-05-02T18:12:47.415Z,13.91
2018-05-02T18:15:13.267Z,13.90
2018-05-02T18:17:39.115Z,13.87
2018-05-02T18:20:05.054Z,13.82
2018-05-02T18:22:30.925Z,13.76
2018-05-02T18:24:56.894Z,13.75
2018-05-02T18:27:22.804Z,13.73
2018-05-02T18:29:48.671Z,13.66
2018-05-02T18:32:14.537Z,13.65
2018-05-02T18:34:40.431Z,13.58
2018-05-02T18:37:06.292Z,13.51
2018-05-02T18:39:32.138Z,13.47
2018-05-02T18:41:58.130Z,13.40
2018-05-02T18:44:23.931Z,13.34
2018-05-02T18:46:49.869Z,13.28
2018-05-02T18:49:15.761Z,13.19
2018-05-02T18:51:41.658Z,13.03
2018-05-02T18:54:07.503Z,12.93
2018-05-02T18:56:33.413Z,12.86
2018-05-02T18:58:59.278Z,12.70
2018-05-02T19:01:25.151Z,12.65
2018-05-02T19:03:51.069Z,12.60
2018-05-02T19:06:16.913Z,12.57
2018-05-02T19:08:42.813Z,12.60
2018-05-02T19:11:08.808Z,12.62
2018-05-02T19:13:40.863Z,12.61
2018-05-02T19:16:06.726Z,12.67
2018-05-02T19:18:38.885Z,12.66
2018-05-02T19:21:04.694Z,12.67
2018-05-02T19:23:30.551Z,12.67
2018-05-02T19:26:02.682Z,12.77
2018-05-02T19:28:28.561Z,12.78
2018-05-02T19:31:00.463Z,12.72
2018-05-02T19:33:32.388Z,12.81
2018-05-02T19:35:58.274Z,12.76
2018-05-02T19:38:24.148Z,12.76
2018-05-02T19:40:56.143Z,12.81
2018-05-02T19:43:28.073Z,12.79
2018-05-02T19:45:53.940Z,12.78
2018-05-02T19:48:19.841Z,12.79
2018-05-02T19:50:51.833Z,12.78
2018-05-02T19:53:17.775Z,12.77
2018-05-02T19:55:44.050Z,12.74
2018-05-02T19:58:09.908Z,12.70
2018-05-02T20:00:41.943Z,12.75
2018-05-02T20:03:07.866Z,12.72
2018-05-02T20:05:33.777Z,12.75
2018-05-02T20:07:59.638Z,12.73
2018-05-02T20:10:31.670Z,12.73
2018-05-02T20:13:03.695Z,12.79
2018-05-02T20:15:29.618Z,12.76
2018-05-02T20:17:55.519Z,12.78
2018-05-02T20:20:21.435Z,12.71
2018-05-02T20:22:47.287Z,12.65
2018-05-02T20:25:13.199Z,12.61
2018-05-02T20:27:39.051Z,12.59
2018-05-02T20:30:04.911Z,12.53
2018-05-02T20:32:30.806Z,12.49
2018-05-02T20:34:56.656Z,12.44
2018-05-02T20:37:22.544Z,12.36
2018-05-02T20:39:48.437Z,12.30
2018-05-02T20:42:14.297Z,12.23
2018-05-02T20:44:40.144Z,12.19
2018-05-02T20:47:06.036Z,12.14
2018-05-02T20:49:31.886Z,12.09
2018-05-02T20:51:57.823Z,12.03
2018-05-02T20:54:23.735Z,12.02
2018-05-02T20:56:49.582Z,11.99
2018-05-02T20:59:15.456Z,11.92
2018-05-02T21:01:41.342Z,11.89
2018-05-02T21:04:07.208Z,11.82
2018-05-02T21:06:33.103Z,11.75
2018-05-02T21:08:59.059Z,11.72
2018-05-02T21:11:24.911Z,11.70
2018-05-02T21:13:50.772Z,11.65
2018-05-02T21:16:16.654Z,11.64
2018-05-02T21:18:42.507Z,11.62
2018-05-02T21:21:08.375Z,11.60
2018-05-02T21:23:34.269Z,11.61
2018-05-02T21:26:00.124Z,11.61
2018-05-02T21:28:25.971Z,11.59
2018-05-02T21:30:51.910Z,11.61
2018-05-02T21:33:17.731Z,11.61
2018-05-02T21:35:43.587Z,11.66
2018-05-02T21:38:09.503Z,11.69
2018-05-02T21:40:35.386Z,11.71
2018-05-02T21:43:01.215Z,11.73
2018-05-02T21:45:27.113Z,11.73
2018-05-02T21:47:53.146Z,11.74
2018-05-02T21:50:18.921Z,11.75
2018-05-02T21:52:44.825Z,11.80
2018-05-02T21:55:10.696Z,11.75
2018-05-02T21:57:36.548Z,11.72
2018-05-02T22:00:02.459Z,11.67
2018-05-02T22:02:28.317Z,11.63
2018-05-02T22:04:54.171Z,11.58
2018-05-02T22:07:20.132Z,11.53
2018-05-02T22:09:45.972Z,11.48
2018-05-02T22:12:11.823Z,11.43
2018-05-02T22:14:37.728Z,11.39
2018-05-02T22:17:03.582Z,11.35
2018-05-02T22:19:29.448Z,11.32
2018-05-02T22:21:55.343Z,11.33
2018-05-02T22:24:21.186Z,11.31
2018-05-02T22:26:47.062Z,11.29
2018-05-02T22:29:12.957Z,11.30
2018-05-02T22:31:38.810Z,11.28
2018-05-02T22:34:04.736Z,11.34
2018-05-02T22:36:30.630Z,11.32
2018-05-02T22:38:56.490Z,11.35
2018-05-02T22:41:22.453Z,11.38
2018-05-02T22:43:48.331Z,11.48
2018-05-02T22:46:14.174Z,11.55
2018-05-02T22:48:40.080Z,11.74
2018-05-02T22:51:05.983Z,11.64
2018-05-02T22:53:31.847Z,11.61
2018-05-02T22:55:57.756Z,11.58
2018-05-02T22:58:23.665Z,11.55
2018-05-02T23:00:49.531Z,11.52
2018-05-02T23:03:15.393Z,11.57
2018-05-02T23:05:41.275Z,11.59
2018-05-02T23:08:07.166Z,11.58
2018-05-02T23:10:33.022Z,11.57
2018-05-02T23:12:58.918Z,11.58
2018-05-02T23:15:24.783Z,11.54
2018-05-02T23:17:50.671Z,11.61
2018-05-02T23:20:16.575Z,11.58
2018-05-02T23:22:42.426Z,11.51
2018-05-02T23:25:08.275Z,11.50
2018-05-02T23:27:34.162Z,11.44
2018-05-02T23:30:00.029Z,11.42
2018-05-02T23:32:25.984Z,11.45
2018-05-02T23:34:51.892Z,11.46
2018-05-02T23:37:17.748Z,11.45
2018-05-02T23:39:43.615Z,11.57
2018-05-02T23:42:09.544Z,11.52
2018-05-02T23:44:35.418Z,11.55
2018-05-02T23:47:01.301Z,11.52
2018-05-02T23:49:27.213Z,11.52
2018-05-02T23:51:53.065Z,11.56
2018-05-02T23:54:18.945Z,11.56
2018-05-02T23:56:44.841Z,11.54
2018-05-02T23:59:10.736Z,11.55
